Time;durP1;ratioP1;P1;durP2;ratioP2;P2;SDS_P1;SDS_P2;PMS_P1;PMS_P2;Temp;Humidity;BMP_temperature;BMP_pressure;BME280_temperature;BME280_humidity;BME280_pressure;Samples;Min_cycle;Max_cycle;Signal;HPM_P1;HPM_P2
2024/02/25 00:03:55;;;;;;;3.25;1.70;;;;;;;2.05;62.75;98786.69;10476879;28;20036;-59
2024/02/25 00:08:58;;;;;;;4.78;1.38;;;;;;;2.16;62.44;98776.72;10474571;28;20090;-59
2024/02/25 00:14:00;;;;;;;3.30;1.55;;;;;;;2.37;62.33;98778.38;10457607;28;20067;-59
2024/02/25 00:19:02;;;;;;;4.50;1.60;;;;;;;2.36;62.24;98775.88;10465234;28;20449;-59
2024/02/25 00:24:05;;;;;;;5.22;1.38;;;;;;;2.30;62.66;98764.06;10484356;28;20048;-59
2024/02/25 00:29:07;;;;;;;2.47;1.40;;;;;;;2.28;63.14;98767.59;10481934;28;20442;-59
2024/02/25 00:34:10;;;;;;;2.58;1.45;;;;;;;2.35;62.85;98758.69;10464273;28;20048;-59
2024/02/25 00:39:12;;;;;;;2.78;1.60;;;;;;;2.47;62.69;98756.41;10481725;28;20047;-59
2024/02/25 00:44:14;;;;;;;4.55;1.30;;;;;;;2.63;62.37;98756.53;10481847;28;20139;-59
2024/02/25 00:49:17;;;;;;;0.90;0.90;;;;;;;2.84;62.08;98750.38;10480868;28;20156;-59
2024/02/25 00:54:20;;;;;;;2.33;1.27;;;;;;;2.87;61.71;98748.47;10466336;28;20055;-59
2024/02/25 00:59:22;;;;;;;3.15;1.67;;;;;;;2.74;61.77;98754.28;10480274;28;20576;-59
2024/02/25 01:04:24;;;;;;;3.17;1.85;;;;;;;2.56;62.11;98753.38;10481842;28;20134;-59
2024/02/25 01:09:26;;;;;;;2.60;1.40;;;;;;;2.52;62.27;98758.78;10463217;28;20482;-59
2024/02/25 01:14:28;;;;;;;1.85;1.30;;;;;;;2.71;62.20;98757.00;10487781;28;20219;-59
2024/02/25 01:19:30;;;;;;;1.95;1.30;;;;;;;2.79;61.86;98742.84;10478451;28;20423;-58
2024/02/25 01:24:32;;;;;;;2.28;1.13;;;;;;;2.93;61.68;98744.75;10445566;28;20048;-58
2024/02/25 01:29:34;;;;;;;1.48;1.00;;;;;;;3.17;61.47;98733.25;10466547;28;20151;-59
2024/02/25 01:34:37;;;;;;;1.27;0.95;;;;;;;3.38;61.19;98719.28;10487101;28;20253;-59
2024/02/25 01:39:39;;;;;;;4.25;1.90;;;;;;;3.25;61.11;98736.31;10479589;28;20040;-59
2024/02/25 01:44:54;;;;;;;2.45;1.45;;;;;;;3.22;61.46;98738.19;10480067;28;20502;-59
2024/02/25 01:49:56;;;;;;;2.03;1.30;;;;;;;3.28;61.26;98741.31;10464679;28;20492;-58
2024/02/25 01:54:59;;;;;;;2.25;1.55;;;;;;;3.43;61.31;98726.81;10481214;28;20670;-59
2024/02/25 02:00:01;;;;;;;2.92;1.40;;;;;;;3.58;61.13;98720.84;10482543;28;20052;-59
2024/02/25 02:05:06;;;;;;;1.88;1.27;;;;;;;3.78;60.64;98715.53;10480172;28;20040;-59
2024/02/25 02:10:08;;;;;;;1.45;1.08;;;;;;;3.85;60.33;98702.22;10477657;28;20088;-59
2024/02/25 02:15:11;;;;;;;2.60;1.58;;;;;;;3.69;60.83;98701.31;10478092;28;20094;-59
2024/02/25 02:20:20;;;;;;;2.38;1.63;;;;;;;3.62;61.05;98710.28;10488508;28;20043;-58
2024/02/25 02:25:22;;;;;;;2.53;1.40;;;;;;;3.72;60.62;98697.75;10477677;28;20135;-59
2024/02/25 02:30:27;;;;;;;1.58;1.05;;;;;;;3.85;60.45;98691.03;10466452;28;20334;-59
2024/02/25 02:35:29;;;;;;;3.58;1.33;;;;;;;4.03;60.34;98679.72;10477242;28;20049;-59
2024/02/25 02:40:31;;;;;;;2.22;1.48;;;;;;;4.03;60.42;98677.13;10466111;28;20055;-59
2024/02/25 02:45:33;;;;;;;2.42;1.25;;;;;;;3.99;60.39;98665.28;10476828;28;20044;-59
2024/02/25 02:50:36;;;;;;;2.58;1.23;;;;;;;3.92;60.42;98665.69;10478281;28;20290;-59
2024/02/25 02:55:38;;;;;;;1.55;1.13;;;;;;;4.10;60.30;98665.53;10478418;28;20044;-59
2024/02/25 03:00:40;;;;;;;0.93;0.90;;;;;;;4.23;59.62;98660.56;10479671;28;20409;-59
2024/02/25 03:05:43;;;;;;;2.22;1.25;;;;;;;4.38;59.27;98654.53;10457916;28;20034;-59
2024/02/25 03:10:45;;;;;;;1.85;1.23;;;;;;;4.44;59.03;98655.03;10476623;28;20390;-59
2024/02/25 03:15:47;;;;;;;3.58;1.20;;;;;;;4.47;59.04;98654.03;10476058;28;20044;-59
2024/02/25 03:20:49;;;;;;;1.42;0.98;;;;;;;4.58;58.77;98654.25;10477886;28;20131;-59
2024/02/25 03:25:51;;;;;;;3.10;1.10;;;;;;;4.66;58.71;98639.13;10475607;28;20051;-59
2024/02/25 03:30:54;;;;;;;1.88;1.08;;;;;;;4.69;58.64;98654.50;10477828;28;20131;-58
2024/02/25 03:35:56;;;;;;;1.48;1.15;;;;;;;4.63;58.86;98640.16;10461337;28;20508;-58
2024/02/25 03:40:58;;;;;;;1.90;1.10;;;;;;;4.65;58.92;98643.50;10477424;28;20391;-59
2024/02/25 03:46:01;;;;;;;1.88;0.90;;;;;;;4.61;58.83;98649.75;10484288;28;20048;-58
2024/02/25 03:51:03;;;;;;;1.67;1.10;;;;;;;4.54;58.91;98645.81;10479178;28;20135;-59
2024/02/25 03:56:05;;;;;;;1.58;1.10;;;;;;;4.54;58.97;98643.25;10472551;28;20139;-59
2024/02/25 04:01:07;;;;;;;1.30;0.95;;;;;;;4.60;58.93;98636.88;10485460;28;20051;-59
2024/02/25 04:06:09;;;;;;;1.73;0.80;;;;;;;4.70;58.78;98648.38;10484351;28;20063;-59
2024/02/25 04:11:12;;;;;;;1.38;0.70;;;;;;;4.76;58.97;98647.22;10482840;28;20094;-59
2024/02/25 04:16:14;;;;;;;0.82;0.70;;;;;;;4.97;58.65;98651.16;10483521;28;20522;-59
2024/02/25 04:21:16;;;;;;;0.88;0.80;;;;;;;4.98;58.49;98648.50;10482379;28;20044;-59
2024/02/25 04:26:18;;;;;;;0.82;0.73;;;;;;;5.00;58.69;98646.66;10465392;28;20573;-59
2024/02/25 04:31:20;;;;;;;1.08;0.70;;;;;;;5.09;58.64;98651.31;10482176;28;20294;-59
2024/02/25 04:36:22;;;;;;;0.77;0.77;;;;;;;5.08;58.66;98647.06;10447529;28;20805;-60
2024/02/25 04:41:24;;;;;;;1.60;0.80;;;;;;;5.20;58.74;98654.13;10482377;28;20056;-59
2024/02/25 04:46:26;;;;;;;0.70;0.65;;;;;;;5.10;59.07;98667.69;10480932;28;20508;-60
2024/02/25 04:51:28;;;;;;;1.15;0.70;;;;;;;5.06;59.91;98666.19;10489322;28;20055;-60
2024/02/25 04:56:31;;;;;;;1.02;0.82;;;;;;;5.05;60.01;98669.69;10480608;28;20507;-60
2024/02/25 05:01:33;;;;;;;1.65;0.77;;;;;;;4.99;60.73;98673.47;10483592;28;20045;-59
2024/02/25 05:06:35;;;;;;;1.20;1.10;;;;;;;4.94;60.72;98667.75;10481423;28;20048;-60
2024/02/25 05:11:38;;;;;;;1.23;0.82;;;;;;;5.03;60.71;98674.13;10480805;28;20055;-59
2024/02/25 05:16:40;;;;;;;1.30;1.00;;;;;;;4.99;60.78;98675.22;10480592;28;20706;-59
2024/02/25 05:21:44;;;;;;;0.68;0.60;;;;;;;5.02;61.21;98673.31;10501550;28;20327;-59
2024/02/25 05:26:46;;;;;;;1.52;0.77;;;;;;;4.99;61.01;98681.25;10486237;28;20123;-59
2024/02/25 05:31:49;;;;;;;1.48;0.93;;;;;;;5.09;61.05;98684.16;10466853;28;20411;-58
2024/02/25 05:36:52;;;;;;;1.25;0.90;;;;;;;5.00;61.44;98674.31;10482556;28;20157;-58
2024/02/25 05:41:54;;;;;;;0.77;0.77;;;;;;;5.03;61.58;98669.78;10465119;28;20102;-60
2024/02/25 05:46:56;;;;;;;1.10;0.90;;;;;;;5.03;61.59;98671.53;10485910;28;20044;-60
2024/02/25 05:51:58;;;;;;;0.70;0.70;;;;;;;5.10;61.58;98671.13;10483585;28;20048;-60
2024/02/25 05:57:00;;;;;;;1.35;0.80;;;;;;;5.05;61.59;98678.31;10463344;28;20215;-60
2024/02/25 06:02:02;;;;;;;1.55;0.90;;;;;;;5.13;61.32;98680.47;10478834;28;20040;-59
2024/02/25 06:07:05;;;;;;;1.20;0.90;;;;;;;4.97;61.51;98690.03;10481909;28;20405;-61
2024/02/25 06:12:07;;;;;;;1.08;0.80;;;;;;;5.09;61.37;98689.34;10460329;28;20087;-61
2024/02/25 06:17:09;;;;;;;1.10;1.00;;;;;;;5.10;61.03;98699.63;10458962;28;20050;-60
2024/02/25 06:22:11;;;;;;;2.65;1.00;;;;;;;5.17;60.88;98708.72;10476424;28;20037;-60
2024/02/25 06:27:14;;;;;;;1.38;1.10;;;;;;;5.17;61.09;98708.72;10477995;28;20131;-59
2024/02/25 06:32:16;;;;;;;0.68;0.68;;;;;;;5.20;60.96;98720.66;10479512;28;20060;-61
2024/02/25 06:37:18;;;;;;;2.63;0.93;;;;;;;5.24;61.30;98710.03;10458826;28;20500;-60
2024/02/25 06:42:23;;;;;;;2.25;1.23;;;;;;;5.17;61.08;98706.13;10478123;28;20493;-60
2024/02/25 06:47:25;;;;;;;1.17;1.00;;;;;;;4.97;61.39;98706.41;10477152;28;20067;-60
2024/02/25 06:52:28;;;;;;;1.08;0.80;;;;;;;5.15;61.01;98707.97;10486186;28;20157;-60
2024/02/25 06:57:30;;;;;;;1.60;1.10;;;;;;;5.24;60.99;98709.19;10476518;28;20454;-60
2024/02/25 07:02:33;;;;;;;1.38;0.85;;;;;;;5.34;60.95;98705.16;10477404;28;20097;-60
2024/02/25 07:07:38;;;;;;;1.02;0.90;;;;;;;5.27;61.08;98714.19;10476619;28;20055;-60
2024/02/25 07:12:40;;;;;;;1.25;0.90;;;;;;;5.43;61.04;98720.19;10483393;28;20430;-60
2024/02/25 07:17:42;;;;;;;0.77;0.77;;;;;;;5.55;60.83;98712.50;10481285;28;20118;-60
2024/02/25 07:22:45;;;;;;;0.75;0.60;;;;;;;5.80;60.44;98708.50;10464798;28;20479;-60
2024/02/25 07:27:47;;;;;;;1.02;0.90;;;;;;;5.95;60.16;98698.00;10484796;28;20071;-60
2024/02/25 07:32:49;;;;;;;0.70;0.70;;;;;;;5.98;59.95;98702.19;10491139;28;20068;-60
2024/02/25 07:37:51;;;;;;;0.80;0.80;;;;;;;6.13;59.56;98714.22;10484697;28;20049;-60
2024/02/25 07:42:53;;;;;;;0.75;0.75;;;;;;;6.31;59.41;98705.31;10490401;28;20046;-60
2024/02/25 07:47:55;;;;;;;1.25;1.05;;;;;;;6.25;59.46;98716.94;10482748;28;20051;-61
2024/02/25 07:52:57;;;;;;;1.67;1.00;;;;;;;6.26;59.57;98723.81;10486335;28;20060;-61
2024/02/25 07:58:02;;;;;;;3.08;1.60;;;;;;;6.23;59.68;98718.75;10486939;28;20051;-60
2024/02/25 08:03:04;;;;;;;1.60;1.05;;;;;;;6.10;60.12;98709.22;10481854;28;20039;-60
2024/02/25 08:08:06;;;;;;;1.85;1.08;;;;;;;6.02;60.44;98714.88;10484239;28;20440;-60
2024/02/25 08:13:12;;;;;;;1.30;0.93;;;;;;;6.10;60.54;98720.41;10485058;28;20131;-60
2024/02/25 08:18:14;;;;;;;1.77;1.20;;;;;;;6.65;60.00;98702.31;10470534;28;20135;-60
2024/02/25 08:23:17;;;;;;;3.35;1.20;;;;;;;7.16;59.13;98705.94;10482837;28;20052;-61
2024/02/25 08:28:20;;;;;;;0.82;0.80;;;;;;;7.50;58.39;98700.16;10484099;28;20127;-60
2024/02/25 08:33:22;;;;;;;1.58;0.95;;;;;;;7.79;58.29;98696.41;10483190;28;20056;-60
2024/02/25 08:38:24;;;;;;;2.28;1.30;;;;;;;7.92;56.27;98691.22;10480268;28;20051;-60
2024/02/25 08:43:26;;;;;;;2.17;0.80;;;;;;;8.14;56.80;98693.22;10464008;28;20055;-60
2024/02/25 08:48:29;;;;;;;1.92;1.13;;;;;;;8.31;56.54;98698.91;10480562;28;20110;-60
2024/02/25 08:53:31;;;;;;;1.70;0.98;;;;;;;8.45;56.19;98701.38;10464661;28;20060;-60
2024/02/25 08:58:33;;;;;;;0.80;0.80;;;;;;;8.70;54.38;98703.09;10480786;28;20052;-61
2024/02/25 09:03:36;;;;;;;1.88;1.30;;;;;;;8.88;54.71;98699.16;10463689;28;20143;-60
2024/02/25 09:08:51;;;;;;;0.50;0.50;;;;;;;8.98;53.90;98705.38;10479349;28;20060;-60
2024/02/25 09:13:54;;;;;;;1.35;1.17;;;;;;;9.15;53.71;98707.59;10461636;28;20178;-60
2024/02/25 09:18:56;;;;;;;1.58;1.00;;;;;;;9.69;52.94;98707.09;10481107;28;20518;-60
2024/02/25 09:24:01;;;;;;;0.60;0.60;;;;;;;9.98;51.95;98708.31;10479559;28;20059;-60
2024/02/25 09:29:03;;;;;;;2.78;1.30;;;;;;;9.90;52.82;98713.28;10480529;28;20059;-60
2024/02/25 09:34:08;;;;;;;1.80;1.27;;;;;;;9.82;52.29;98705.19;10472591;28;20447;-60
2024/02/25 09:39:12;;;;;;;1.35;0.80;;;;;;;9.45;50.55;98707.94;10477987;28;20048;-60
2024/02/25 09:44:23;;;;;;;3.75;1.10;;;;;;;9.34;50.95;98701.84;10480131;28;20556;-60
2024/02/25 09:49:28;;;;;;;2.38;1.10;;;;;;;9.88;51.91;98695.13;10478987;28;20292;-60
2024/02/25 09:54:30;;;;;;;0.90;0.73;;;;;;;9.79;51.70;98695.81;10479644;28;20052;-61
2024/02/25 09:59:32;;;;;;;1.65;0.98;;;;;;;9.73;51.50;98691.06;10480827;28;20056;-60
2024/02/25 10:04:36;;;;;;;1.25;0.80;;;;;;;9.92;50.53;98693.94;10479872;28;20083;-60
2024/02/25 10:09:42;;;;;;;1.30;1.02;;;;;;;10.65;50.11;98683.78;10460453;28;20059;-60
2024/02/25 10:14:51;;;;;;;0.95;0.82;;;;;;;10.18;49.61;98684.06;10477024;28;20512;-60
2024/02/25 10:19:57;;;;;;;2.08;1.10;;;;;;;10.16;51.39;98680.75;10478832;28;20355;-60
2024/02/25 10:25:04;;;;;;;1.95;1.17;;;;;;;10.03;51.30;98686.13;10443011;28;20044;-60
2024/02/25 10:30:08;;;;;;;0.73;0.73;;;;;;;9.64;51.93;98684.75;10460064;28;20048;-60
2024/02/25 10:35:11;;;;;;;1.20;0.63;;;;;;;9.52;51.64;98685.63;10481718;28;20048;-52
2024/02/25 10:40:13;;;;;;;0.68;0.40;;;;;;;9.90;51.43;98684.56;10459261;28;20098;-53
2024/02/25 10:45:19;;;;;;;1.02;0.60;;;;;;;9.40;51.42;98686.56;10483631;28;20052;-52
2024/02/25 10:50:24;;;;;;;0.82;0.82;;;;;;;9.21;52.01;98685.44;10477137;28;20394;-52
2024/02/25 10:55:27;;;;;;;0.88;0.80;;;;;;;9.31;52.32;98681.19;10476898;28;20142;-54
2024/02/25 11:00:29;;;;;;;0.98;0.60;;;;;;;9.50;50.75;98676.28;10477567;28;20058;-56
2024/02/25 11:05:31;;;;;;;1.35;1.00;;;;;;;9.58;51.41;98668.72;10457851;28;20037;-54
2024/02/25 11:10:35;;;;;;;1.15;0.90;;;;;;;9.69;51.46;98668.75;10476809;28;20066;-56
2024/02/25 11:15:39;;;;;;;0.70;0.70;;;;;;;9.77;50.65;98666.38;10476631;28;20075;-52
2024/02/25 11:20:41;;;;;;;1.42;1.20;;;;;;;10.08;50.49;98651.78;10473513;28;20063;-53
2024/02/25 11:25:43;;;;;;;3.00;1.50;;;;;;;10.30;50.06;98654.38;10475050;28;20044;-54
2024/02/25 11:30:48;;;;;;;1.33;1.05;;;;;;;10.52;49.90;98646.53;10475076;28;20534;-56
2024/02/25 11:35:50;;;;;;;0.70;0.70;;;;;;;10.32;49.04;98637.63;10476061;28;20447;-54
2024/02/25 11:40:57;;;;;;;0.68;0.68;;;;;;;10.59;48.13;98647.69;10474313;28;20037;-57
2024/02/25 11:46:00;;;;;;;1.05;0.70;;;;;;;10.58;48.65;98638.19;10474205;28;20595;-54
2024/02/25 11:51:04;;;;;;;0.60;0.60;;;;;;;10.48;48.58;98638.06;10457586;28;20048;-56
2024/02/25 11:56:07;;;;;;;0.75;0.70;;;;;;;10.51;48.16;98623.94;10477883;28;20540;-51
2024/02/25 12:01:10;;;;;;;1.52;0.80;;;;;;;10.49;47.86;98620.63;10456835;28;20064;-54
2024/02/25 12:12:00;;;;;;;0.90;0.80;;;;;;;10.40;48.00;98606.50;10554341;27;20616;-53
2024/02/25 12:17:02;;;;;;;1.05;0.90;;;;;;;10.35;47.67;98607.81;10531389;28;20134;-55
2024/02/25 12:22:05;;;;;;;1.45;0.88;;;;;;;10.46;47.56;98605.19;10548616;28;20313;-51
2024/02/25 12:27:08;;;;;;;0.60;0.60;;;;;;;10.34;47.60;98599.16;10548178;28;20044;-52
2024/02/25 12:32:10;;;;;;;0.80;0.68;;;;;;;10.13;45.42;98592.19;10549052;28;20058;-54
2024/02/25 12:37:14;;;;;;;0.50;0.50;;;;;;;10.41;47.43;98589.03;10529858;28;20480;-55
2024/02/25 12:42:17;;;;;;;0.75;0.70;;;;;;;10.56;47.27;98587.81;10546275;28;20116;-56
2024/02/25 12:47:19;;;;;;;0.82;0.60;;;;;;;10.69;47.17;98575.38;10528399;28;20491;-54
2024/02/25 12:52:22;;;;;;;0.52;0.52;;;;;;;10.76;46.53;98573.94;10547388;28;20389;-51
2024/02/25 12:57:24;;;;;;;1.40;0.63;;;;;;;10.76;46.43;98573.94;10545303;28;20101;-51
2024/02/25 13:02:26;;;;;;;0.65;0.57;;;;;;;10.58;45.95;98567.59;10531289;28;20411;-55
2024/02/25 13:07:28;;;;;;;0.50;0.50;;;;;;;10.47;46.47;98559.78;10546415;28;20478;-55
2024/02/25 13:12:34;;;;;;;0.50;0.50;;;;;;;10.42;46.79;98561.94;10546021;28;20312;-54
2024/02/25 13:17:36;;;;;;;0.60;0.60;;;;;;;10.36;47.69;98558.03;10524873;28;20545;-54
2024/02/25 13:22:38;;;;;;;0.68;0.65;;;;;;;10.48;48.55;98557.03;10505655;28;20514;-51
2024/02/25 13:27:40;;;;;;;1.35;0.80;;;;;;;10.67;48.12;98542.47;10518579;28;20044;-55
2024/02/25 13:32:43;;;;;;;0.77;0.52;;;;;;;10.59;47.82;98537.88;10499066;28;20115;-51
2024/02/25 13:37:45;;;;;;;0.50;0.50;;;;;;;10.52;47.63;98532.31;10519054;28;20046;-52
2024/02/25 13:42:47;;;;;;;0.43;0.43;;;;;;;10.34;47.92;98536.44;10517701;28;20135;-52
2024/02/25 13:47:49;;;;;;;1.02;0.60;;;;;;;10.49;47.79;98516.06;10515473;28;20442;-54
2024/02/25 13:52:51;;;;;;;1.80;0.70;;;;;;;10.45;47.94;98520.72;10517999;28;20732;-56
2024/02/25 13:57:53;;;;;;;0.40;0.40;;;;;;;10.70;47.43;98516.94;10520243;28;20113;-56
2024/02/25 14:02:55;;;;;;;1.08;0.70;;;;;;;10.78;47.04;98508.44;10516166;28;20133;-56
2024/02/25 14:07:58;;;;;;;2.15;0.70;;;;;;;10.73;47.39;98500.97;10518490;28;20530;-54
2024/02/25 14:13:00;;;;;;;0.52;0.50;;;;;;;10.95;46.86;98498.22;10517731;28;20047;-51
2024/02/25 14:18:05;;;;;;;0.95;0.50;;;;;;;10.68;46.88;98497.91;10518586;28;20804;-55
2024/02/25 14:23:08;;;;;;;2.10;0.80;;;;;;;10.69;47.21;98501.34;10501114;28;20051;-56
2024/02/25 14:28:10;;;;;;;0.80;0.60;;;;;;;10.45;47.21;98498.97;10515085;28;20040;-55
2024/02/25 14:33:12;;;;;;;0.50;0.50;;;;;;;10.47;47.39;98491.84;10497315;28;20504;-55
2024/02/25 14:38:14;;;;;;;0.65;0.60;;;;;;;10.43;47.04;98479.97;10498394;28;20055;-56
2024/02/25 14:43:16;;;;;;;0.47;0.43;;;;;;;10.45;47.12;98472.84;10491953;28;20202;-55
2024/02/25 14:48:18;;;;;;;0.55;0.55;;;;;;;10.15;47.17;98470.94;10509662;28;20409;-54
2024/02/25 14:53:21;;;;;;;0.85;0.50;;;;;;;9.86;47.59;98464.63;10509990;28;20048;-56
2024/02/25 14:58:24;;;;;;;2.08;0.98;;;;;;;10.04;47.87;98457.91;10494916;28;20392;-56
2024/02/25 15:03:27;;;;;;;2.45;0.98;;;;;;;9.96;47.42;98456.88;10514420;28;20040;-55
2024/02/25 15:08:29;;;;;;;4.03;1.02;;;;;;;10.12;47.75;98454.66;10476858;28;20337;-53
2024/02/25 15:13:32;;;;;;;1.48;0.65;;;;;;;10.23;47.32;98441.59;10491248;28;20040;-56
2024/02/25 15:18:34;;;;;;;0.50;0.50;;;;;;;10.21;47.31;98436.50;10515613;28;20044;-51
2024/02/25 15:23:40;;;;;;;1.27;0.70;;;;;;;10.41;47.16;98427.00;10512544;28;20051;-54
2024/02/25 15:28:42;;;;;;;2.72;0.80;;;;;;;10.59;46.87;98422.00;10514905;28;20052;-52
2024/02/25 15:33:47;;;;;;;0.45;0.40;;;;;;;10.38;46.08;98419.41;10511020;28;20043;-56
2024/02/25 15:38:52;;;;;;;1.23;0.70;;;;;;;10.21;46.67;98422.59;10513896;28;20117;-51
2024/02/25 15:43:55;;;;;;;0.43;0.43;;;;;;;9.90;47.04;98415.59;10510561;28;20044;-52
2024/02/25 15:48:58;;;;;;;0.60;0.60;;;;;;;9.59;47.17;98414.56;10513465;28;20052;-55
2024/02/25 15:54:04;;;;;;;1.08;0.50;;;;;;;9.38;47.52;98417.09;10513332;28;20036;-54
2024/02/25 15:59:10;;;;;;;0.57;0.57;;;;;;;9.31;47.57;98408.09;10514406;28;20555;-55
2024/02/25 16:04:14;;;;;;;0.55;0.52;;;;;;;9.35;47.68;98406.91;10515296;28;20101;-53
2024/02/25 16:09:17;;;;;;;1.52;0.80;;;;;;;9.32;47.71;98407.13;10484511;28;20152;-56
2024/02/25 16:14:23;;;;;;;1.00;0.63;;;;;;;9.08;48.04;98405.59;10506255;28;20054;-53
2024/02/25 16:19:27;;;;;;;0.70;0.70;;;;;;;8.89;48.45;98395.81;10513225;28;20217;-52
2024/02/25 16:24:29;;;;;;;0.47;0.47;;;;;;;8.71;48.70;98394.56;10514056;28;20572;-54
2024/02/25 16:29:32;;;;;;;0.73;0.60;;;;;;;8.47;49.02;98394.69;10512796;28;20052;-53
2024/02/25 16:34:34;;;;;;;2.55;0.90;;;;;;;8.31;49.21;98386.34;10509052;28;20059;-52
2024/02/25 16:39:37;;;;;;;1.40;0.77;;;;;;;8.13;49.62;98379.91;10509848;28;20051;-53
2024/02/25 16:44:40;;;;;;;0.90;0.70;;;;;;;7.94;49.93;98384.78;10511081;28;20457;-53
2024/02/25 16:49:42;;;;;;;1.35;0.90;;;;;;;7.78;50.06;98387.69;10507392;28;20048;-54
2024/02/25 16:54:44;;;;;;;2.55;0.90;;;;;;;7.66;50.28;98383.38;10512758;28;20212;-54
2024/02/25 16:59:46;;;;;;;1.65;1.27;;;;;;;7.53;50.39;98385.19;10516786;28;20412;-52
2024/02/25 17:04:48;;;;;;;3.15;1.02;;;;;;;7.31;50.70;98386.81;10520481;28;20040;-53
2024/02/25 17:09:54;;;;;;;1.58;0.80;;;;;;;7.12;51.17;98387.31;10517618;28;20058;-54
2024/02/25 17:14:56;;;;;;;1.30;1.00;;;;;;;6.95;51.97;98383.28;10518238;28;20048;-54
2024/02/25 17:19:59;;;;;;;1.58;0.90;;;;;;;6.94;51.79;98388.56;10518859;28;20055;-50
2024/02/25 17:25:01;;;;;;;1.73;0.93;;;;;;;6.85;51.82;98395.25;10518006;28;20105;-51
2024/02/25 17:30:04;;;;;;;1.60;1.10;;;;;;;6.75;52.01;98385.59;10514604;28;20087;-53
2024/02/25 17:35:07;;;;;;;0.93;0.90;;;;;;;6.73;52.26;98390.91;10496979;28;20047;-53
2024/02/25 17:40:10;;;;;;;1.08;0.90;;;;;;;6.66;52.33;98384.44;10512390;28;20044;-53
2024/02/25 17:45:13;;;;;;;2.15;1.27;;;;;;;6.60;52.35;98392.66;10516949;28;20058;-51
2024/02/25 17:50:15;;;;;;;2.55;1.40;;;;;;;6.57;52.41;98392.03;10516604;28;20062;-60
2024/02/25 17:55:18;;;;;;;1.10;1.00;;;;;;;6.54;52.87;98379.25;10515227;28;20051;-60
2024/02/25 18:00:21;;;;;;;1.00;0.70;;;;;;;6.54;53.13;98379.25;10514468;28;20177;-62
2024/02/25 18:05:24;;;;;;;1.35;1.10;;;;;;;6.55;53.27;98378.31;10510759;28;20055;-60
2024/02/25 18:10:26;;;;;;;0.75;0.65;;;;;;;6.57;53.22;98373.84;10513210;28;20526;-60
2024/02/25 18:15:29;;;;;;;1.27;0.80;;;;;;;6.56;53.29;98373.03;10513875;28;20044;-60
2024/02/25 18:20:31;;;;;;;1.70;1.08;;;;;;;6.24;53.23;98374.31;10514074;28;20044;-60
2024/02/25 18:25:36;;;;;;;1.90;1.23;;;;;;;6.03;53.80;98366.19;10496699;28;20212;-59
2024/02/25 18:30:38;;;;;;;2.70;1.50;;;;;;;6.00;53.97;98362.97;10513858;28;20136;-60
2024/02/25 18:35:40;;;;;;;3.97;2.08;;;;;;;5.98;54.24;98349.28;10515958;28;20292;-59
2024/02/25 18:40:42;;;;;;;4.10;2.00;;;;;;;5.95;54.35;98345.13;10517016;28;20040;-60
2024/02/25 18:45:48;;;;;;;7.97;1.90;;;;;;;6.16;54.24;98337.66;10514512;28;20488;-60
2024/02/25 18:50:50;;;;;;;4.20;2.20;;;;;;;6.30;53.87;98338.44;10512586;28;20052;-59
2024/02/25 18:55:53;;;;;;;3.72;1.92;;;;;;;6.19;54.21;98332.25;10513681;28;20044;-59
2024/02/25 19:00:55;;;;;;;5.00;1.77;;;;;;;6.18;53.84;98326.25;10494015;28;20400;-59
2024/02/25 19:05:57;;;;;;;5.38;1.52;;;;;;;6.07;54.10;98314.91;10502271;28;20406;-59
2024/02/25 19:11:01;;;;;;;2.90;1.50;;;;;;;5.98;54.13;98308.56;10511097;28;20066;-59
2024/02/25 19:16:06;;;;;;;3.30;1.73;;;;;;;5.92;54.41;98297.78;10512126;28;20532;-61
2024/02/25 19:21:09;;;;;;;4.82;2.58;;;;;;;5.83;54.73;98308.78;10493204;28;20131;-61
2024/02/25 19:26:11;;;;;;;6.40;2.50;;;;;;;5.75;55.06;98296.31;10513681;28;20495;-61
2024/02/25 19:31:17;;;;;;;4.28;2.13;;;;;;;5.88;55.03;98293.75;10513017;28;20055;-61
2024/02/25 19:36:19;;;;;;;5.78;2.83;;;;;;;5.90;55.05;98295.28;10487982;28;20056;-61
2024/02/25 19:41:21;;;;;;;3.47;1.90;;;;;;;5.87;55.16;98294.66;10502741;28;20071;-59
2024/02/25 19:46:24;;;;;;;3.70;2.03;;;;;;;5.85;55.24;98286.16;10505972;28;20560;-60
2024/02/25 19:51:26;;;;;;;6.53;2.40;;;;;;;5.88;55.46;98284.16;10503451;28;20043;-60
2024/02/25 19:56:28;;;;;;;3.95;2.00;;;;;;;5.95;55.30;98282.00;10507689;28;20131;-60
2024/02/25 20:01:30;;;;;;;3.92;1.73;;;;;;;6.07;55.17;98270.78;10506522;28;20051;-60
2024/02/25 20:06:32;;;;;;;4.50;2.30;;;;;;;6.08;55.18;98262.09;10507387;28;20044;-60
2024/02/25 20:11:38;;;;;;;4.40;2.42;;;;;;;6.13;55.24;98266.03;10493678;28;20523;-59
2024/02/25 20:16:41;;;;;;;3.72;1.98;;;;;;;6.16;55.33;98255.44;10510960;28;20032;-60
2024/02/25 20:21:47;;;;;;;4.70;2.30;;;;;;;6.24;55.40;98254.91;10511527;28;20131;-60
2024/02/25 20:26:49;;;;;;;6.50;3.00;;;;;;;6.27;55.76;98247.78;10496150;28;20446;-60
2024/02/25 20:31:51;;;;;;;5.65;2.90;;;;;;;6.36;55.69;98246.31;10515577;28;20043;-60
2024/02/25 20:36:56;;;;;;;7.25;3.03;;;;;;;6.34;55.64;98240.41;10519607;28;20047;-60
2024/02/25 20:41:58;;;;;;;6.57;2.67;;;;;;;6.32;55.39;98229.28;10500083;28;20199;-60
2024/02/25 20:47:00;;;;;;;6.90;2.33;;;;;;;6.28;55.75;98226.09;10499436;28;20036;-59
2024/02/25 20:52:02;;;;;;;5.15;2.40;;;;;;;6.18;55.42;98217.25;10515644;28;20083;-61
2024/02/25 20:57:07;;;;;;;7.30;2.78;;;;;;;6.12;55.84;98215.03;10492810;28;20044;-60
2024/02/25 21:02:10;;;;;;;4.45;2.30;;;;;;;6.23;55.91;98209.94;10511096;28;20508;-60
2024/02/25 21:07:13;;;;;;;3.97;2.20;;;;;;;6.34;55.94;98207.47;10513520;28;20334;-60
2024/02/25 21:12:15;;;;;;;4.07;2.20;;;;;;;6.38;55.66;98208.09;10532957;27;20051;-60
2024/02/25 21:17:17;;;;;;;4.97;2.38;;;;;;;6.50;55.63;98201.19;10495018;28;20408;-60
2024/02/25 21:22:19;;;;;;;4.53;2.30;;;;;;;6.60;55.51;98194.41;10495070;28;20048;-58
2024/02/25 21:27:22;;;;;;;2.95;1.70;;;;;;;6.65;55.47;98198.38;10509640;28;20036;-59
2024/02/25 21:32:27;;;;;;;4.65;2.03;;;;;;;6.64;55.18;98194.09;10515198;28;20048;-59
2024/02/25 21:37:30;;;;;;;5.82;1.70;;;;;;;6.68;55.14;98194.69;10512200;28;20127;-59
2024/02/25 21:42:34;;;;;;;3.90;1.80;;;;;;;6.75;54.78;98190.72;10492202;28;20888;-58
2024/02/25 21:47:36;;;;;;;2.33;1.50;;;;;;;6.63;54.56;98189.00;10508275;28;20082;-58
2024/02/25 21:52:39;;;;;;;2.03;1.10;;;;;;;6.64;54.55;98183.69;10509376;28;20048;-58
2024/02/25 21:57:41;;;;;;;2.70;1.67;;;;;;;6.73;54.91;98177.88;10495746;28;20135;-58
2024/02/25 22:02:43;;;;;;;3.53;2.15;;;;;;;6.81;54.68;98178.13;10499088;28;20055;-59
2024/02/25 22:07:45;;;;;;;2.15;1.23;;;;;;;6.71;54.27;98174.53;10516510;28;20051;-59
2024/02/25 22:12:47;;;;;;;3.30;1.70;;;;;;;6.62;54.12;98163.97;10515234;28;20442;-59
2024/02/25 22:17:50;;;;;;;2.72;1.50;;;;;;;6.61;53.87;98167.53;10515923;28;20048;-59
2024/02/25 22:22:53;;;;;;;3.95;1.40;;;;;;;6.59;53.96;98159.00;10514266;28;20290;-59
2024/02/25 22:27:55;;;;;;;2.50;1.40;;;;;;;6.62;54.34;98162.22;10515921;28;20044;-59
2024/02/25 22:32:58;;;;;;;3.15;1.50;;;;;;;6.71;54.43;98158.97;10514494;28;20060;-59
2024/02/25 22:38:01;;;;;;;2.90;1.35;;;;;;;6.76;54.22;98153.41;10513795;28;20036;-59
2024/02/25 22:43:03;;;;;;;4.40;1.48;;;;;;;6.82;54.08;98146.00;10513582;28;20131;-59
2024/02/25 22:48:06;;;;;;;2.15;1.25;;;;;;;6.82;54.41;98139.97;10513001;28;20051;-59
2024/02/25 22:53:10;;;;;;;2.28;1.30;;;;;;;6.74;54.38;98153.53;10530213;27;20070;-59
2024/02/25 22:58:12;;;;;;;2.38;1.50;;;;;;;6.67;54.64;98144.53;10512422;28;20135;-59
2024/02/25 23:03:15;;;;;;;3.17;1.75;;;;;;;6.72;54.50;98149.38;10512981;28;20451;-59
2024/02/25 23:08:17;;;;;;;2.97;1.52;;;;;;;6.77;54.80;98157.69;10527243;28;20056;-59
2024/02/25 23:13:19;;;;;;;3.28;1.70;;;;;;;6.80;54.83;98152.25;10511978;28;20044;-59
2024/02/25 23:18:21;;;;;;;3.15;1.75;;;;;;;6.84;54.73;98162.31;10512582;28;20059;-59
2024/02/25 23:23:25;;;;;;;3.60;1.80;;;;;;;6.69;54.71;98157.41;10513627;28;20039;-60
2024/02/25 23:28:27;;;;;;;2.72;1.70;;;;;;;6.69;54.87;98160.84;10494314;28;20044;-60
2024/02/25 23:33:29;;;;;;;3.17;1.75;;;;;;;6.71;55.21;98181.50;10511019;28;20075;-59
2024/02/25 23:38:32;;;;;;;4.50;2.83;;;;;;;6.55;55.68;98173.16;10512578;28;20046;-59
2024/02/25 23:43:34;;;;;;;4.30;2.30;;;;;;;6.37;56.00;98158.88;10507410;28;20058;-58
2024/02/25 23:48:37;;;;;;;4.07;1.98;;;;;;;6.29;55.77;98157.63;10512222;28;20055;-59